Hlavní strana
METAR-TAF:

METAR-TAF

Letiště :

Almería, Španělsko

zeměpisná šířka: 36-51N, zeměpisná délka: 002-23W, výška: 15 m

Aktuální stav počasí

Zpráva byla vytvořena před 18 minutami, v 03:30 UTC
Severovýchodní vítr 6 kt
Teplota 15°C
Vlhkost vzduchu 77%
Tlak 1023 hPa
Viditelnost 10 km a více
Žádná oblačnost pod 1500 m, nevyskytují se cumulonimby.

METAR: LEAM 070330Z AUTO 04006KT CAVOK 15/11 Q1023

Čas: 05:48 (03:48 UTC)

Předpověď počasí

Zpráva byla vytvořena před 1 hodinou a 48 minutami, v 02:00 UTC
Předpověď platná od 07 v 03 UTC do 08 v 03 UTC
Severoseverovýchodní vítr 5 kt
Viditelnost 10 km a více
Skoro jasno ve výšce 3000 ft
Změna
od 07 v 09 UTC do 07 v 11 UTC
Východní vítr 14 kt
Změna
od 07 v 19 UTC do 07 v 21 UTC
Severní vítr 5 kt

TAF: LEAM 070200Z 0703/0803 03005KT 9999 FEW030 TX23/0714Z TN12/0706Z BECMG 0709/0711 09014KT BECMG 0719/0721 35005KT

Stav a předpovědi počasí z více než 4 000 letišť (zprávy METAR a TAF).

Červené a žluté tečky na mapě představují dostupné meteorologické stanice.

Když kurzor umístíte na tečku, zobrazí se název stanice.

Pak kliknutím zobrazíte stav a předpověď počasí.

Chcete-li změnit mapu, kliknutím na zelené tlačítko se znaménkem +mapu přiblížíte, kliknutím na zelené tlačítko se znaménkem – mapu oddálíte a kliknutím na zelené šipky přejdete na sousední mapy.


METAR-TAF: